9XS9 weather

Rancho Verde Airport
Brenham, Texas, United States

Public forecast

Using degrees Fahrenheit for public forecast. Weather courtesy of forecast.io.

METAR (pilot weather report)

Closest report is Brenham Municipal Airport, 5.4 nm (10.0 km) SE. Retrieved 2019/07/17 05:35 UTC (0 seconds ago):

K11R 170535Z AUTO 16006KT 10SM CLR 26/24 A3002 RMK AO2 LTG DSNT SE T02640241

TAF (pilot weather forecast)

Forecast is more than 12 hours old.

Closest forecast is Easterwood Field, 18.8 nm (34.9 km) NNE. Retrieved 2019/07/16 00:24 UTC (1 day ago):

TAF KCLL 162322Z 1700/1724 17015KT P6SM SCT060 SCT250 FM170200 16008KT P6SM FEW050 FEW250 FM170900 17006KT P6SM BKN012 FM171500 17011KT P6SM BKN025 FM171700 17014KT P6SM SCT040